sensor_id;sensor_type;location;lat;lon;timestamp;temperature;humidity
67769;DHT22;54569;52.018;5.584;2022-12-10T00:01:52;0.40;87.20
67769;DHT22;54569;52.018;5.584;2022-12-10T00:04:20;0.50;87.30
67769;DHT22;54569;52.018;5.584;2022-12-10T00:06:45;0.50;87.30
67769;DHT22;54569;52.018;5.584;2022-12-10T00:09:14;0.50;87.10
67769;DHT22;54569;52.018;5.584;2022-12-10T00:11:40;0.50;87.10
67769;DHT22;54569;52.018;5.584;2022-12-10T00:14:06;0.50;87.10
67769;DHT22;54569;52.018;5.584;2022-12-10T00:16:35;0.50;87.00
67769;DHT22;54569;52.018;5.584;2022-12-10T00:19:01;0.50;87.10
67769;DHT22;54569;52.018;5.584;2022-12-10T00:21:29;0.40;87.20
67769;DHT22;54569;52.018;5.584;2022-12-10T00:23:56;0.40;87.20
67769;DHT22;54569;52.018;5.584;2022-12-10T00:26:26;0.40;87.20
67769;DHT22;54569;52.018;5.584;2022-12-10T00:28:52;0.40;87.20
67769;DHT22;54569;52.018;5.584;2022-12-10T00:31:25;0.30;87.30
67769;DHT22;54569;52.018;5.584;2022-12-10T00:33:53;0.30;87.30
67769;DHT22;54569;52.018;5.584;2022-12-10T00:36:25;0.20;87.50
67769;DHT22;54569;52.018;5.584;2022-12-10T00:38:52;0.20;87.50
67769;DHT22;54569;52.018;5.584;2022-12-10T00:41:18;0.20;87.80
67769;DHT22;54569;52.018;5.584;2022-12-10T00:43:44;0.10;87.60
67769;DHT22;54569;52.018;5.584;2022-12-10T00:46:11;0.10;87.60
67769;DHT22;54569;52.018;5.584;2022-12-10T00:48:40;0.10;87.80
67769;DHT22;54569;52.018;5.584;2022-12-10T00:51:18;0.10;88.00
67769;DHT22;54569;52.018;5.584;2022-12-10T00:53:45;0.00;88.00
67769;DHT22;54569;52.018;5.584;2022-12-10T00:56:12;-0.10;88.10
67769;DHT22;54569;52.018;5.584;2022-12-10T00:58:40;-0.10;88.20
67769;DHT22;54569;52.018;5.584;2022-12-10T01:03:54;-0.20;88.20
67769;DHT22;54569;52.018;5.584;2022-12-10T01:08:47;-0.20;88.40
67769;DHT22;54569;52.018;5.584;2022-12-10T01:11:15;-0.20;88.60
67769;DHT22;54569;52.018;5.584;2022-12-10T01:13:42;-0.20;88.70
67769;DHT22;54569;52.018;5.584;2022-12-10T01:16:10;-0.30;88.70
67769;DHT22;54569;52.018;5.584;2022-12-10T01:18:36;-0.30;88.70
67769;DHT22;54569;52.018;5.584;2022-12-10T01:21:09;-0.30;88.80
67769;DHT22;54569;52.018;5.584;2022-12-10T01:23:37;-0.30;88.70
67769;DHT22;54569;52.018;5.584;2022-12-10T01:26:05;-0.40;89.10
67769;DHT22;54569;52.018;5.584;2022-12-10T01:28:35;-0.40;88.90
67769;DHT22;54569;52.018;5.584;2022-12-10T01:31:14;-0.40;88.80
67769;DHT22;54569;52.018;5.584;2022-12-10T01:33:40;-0.40;88.80
67769;DHT22;54569;52.018;5.584;2022-12-10T01:36:15;-0.40;88.70
67769;DHT22;54569;52.018;5.584;2022-12-10T01:38:42;-0.40;88.60
67769;DHT22;54569;52.018;5.584;2022-12-10T01:41:14;-0.50;88.70
67769;DHT22;54569;52.018;5.584;2022-12-10T01:43:55;-0.50;88.60
67769;DHT22;54569;52.018;5.584;2022-12-10T01:46:23;-0.50;88.50
67769;DHT22;54569;52.018;5.584;2022-12-10T01:48:49;-0.50;88.50
67769;DHT22;54569;52.018;5.584;2022-12-10T01:51:16;-0.50;88.60
67769;DHT22;54569;52.018;5.584;2022-12-10T01:53:43;-0.60;88.40
67769;DHT22;54569;52.018;5.584;2022-12-10T01:56:11;-0.60;88.30
67769;DHT22;54569;52.018;5.584;2022-12-10T01:58:38;-0.60;88.50
67769;DHT22;54569;52.018;5.584;2022-12-10T02:03:51;-0.70;88.80
67769;DHT22;54569;52.018;5.584;2022-12-10T02:06:38;-0.70;89.00
67769;DHT22;54569;52.018;5.584;2022-12-10T02:09:32;-0.80;89.00
67769;DHT22;54569;52.018;5.584;2022-12-10T02:12:17;-0.80;89.10
67769;DHT22;54569;52.018;5.584;2022-12-10T02:14:59;-0.80;89.30
67769;DHT22;54569;52.018;5.584;2022-12-10T02:30:39;-0.90;89.50
67769;DHT22;54569;52.018;5.584;2022-12-10T02:33:07;-0.80;89.50
67769;DHT22;54569;52.018;5.584;2022-12-10T02:35:35;-0.80;89.30
67769;DHT22;54569;52.018;5.584;2022-12-10T02:38:26;-0.80;89.20
67769;DHT22;54569;52.018;5.584;2022-12-10T02:41:02;-0.80;89.10
67769;DHT22;54569;52.018;5.584;2022-12-10T02:43:32;-0.70;89.30
67769;DHT22;54569;52.018;5.584;2022-12-10T02:45:59;-0.70;89.30
67769;DHT22;54569;52.018;5.584;2022-12-10T02:48:28;-0.70;89.20
67769;DHT22;54569;52.018;5.584;2022-12-10T02:50:54;-0.60;89.30
67769;DHT22;54569;52.018;5.584;2022-12-10T02:53:19;-0.50;89.20
67769;DHT22;54569;52.018;5.584;2022-12-10T03:04:44;-0.30;89.00
67769;DHT22;54569;52.018;5.584;2022-12-10T03:07:29;-0.20;89.00
67769;DHT22;54569;52.018;5.584;2022-12-10T03:10:06;-0.20;89.00
67769;DHT22;54569;52.018;5.584;2022-12-10T03:12:37;-0.20;88.90
67769;DHT22;54569;52.018;5.584;2022-12-10T03:15:07;-0.20;88.70
67769;DHT22;54569;52.018;5.584;2022-12-10T03:17:35;-0.10;88.60
67769;DHT22;54569;52.018;5.584;2022-12-10T03:20:02;-0.10;88.50
67769;DHT22;54569;52.018;5.584;2022-12-10T03:22:29;0.00;88.50
67769;DHT22;54569;52.018;5.584;2022-12-10T03:24:57;-0.10;88.30
67769;DHT22;54569;52.018;5.584;2022-12-10T03:27:24;-0.10;88.30
67769;DHT22;54569;52.018;5.584;2022-12-10T03:29:53;-0.10;88.50
67769;DHT22;54569;52.018;5.584;2022-12-10T03:32:21;-0.10;88.50
67769;DHT22;54569;52.018;5.584;2022-12-10T03:34:49;-0.10;88.50
67769;DHT22;54569;52.018;5.584;2022-12-10T03:37:17;-0.10;88.90
67769;DHT22;54569;52.018;5.584;2022-12-10T03:39:43;-0.10;89.00
67769;DHT22;54569;52.018;5.584;2022-12-10T03:42:09;-0.10;88.80
67769;DHT22;54569;52.018;5.584;2022-12-10T03:44:37;-0.10;88.80
67769;DHT22;54569;52.018;5.584;2022-12-10T03:47:04;-0.10;89.00
67769;DHT22;54569;52.018;5.584;2022-12-10T03:49:30;-0.10;88.90
67769;DHT22;54569;52.018;5.584;2022-12-10T03:51:56;-0.10;88.80
67769;DHT22;54569;52.018;5.584;2022-12-10T03:54:22;-0.10;88.80
67769;DHT22;54569;52.018;5.584;2022-12-10T03:56:48;-0.10;88.80
67769;DHT22;54569;52.018;5.584;2022-12-10T03:59:14;-0.10;88.80
67769;DHT22;54569;52.018;5.584;2022-12-10T04:01:40;-0.10;89.10
67769;DHT22;54569;52.018;5.584;2022-12-10T04:04:06;-0.10;89.30
67769;DHT22;54569;52.018;5.584;2022-12-10T04:06:32;-0.10;89.20
67769;DHT22;54569;52.018;5.584;2022-12-10T04:08:57;-0.20;89.20
67769;DHT22;54569;52.018;5.584;2022-12-10T04:11:23;-0.20;89.40
67769;DHT22;54569;52.018;5.584;2022-12-10T04:13:50;-0.20;89.50
67769;DHT22;54569;52.018;5.584;2022-12-10T04:16:35;-0.20;90.10
67769;DHT22;54569;52.018;5.584;2022-12-10T04:19:07;-0.20;90.00
67769;DHT22;54569;52.018;5.584;2022-12-10T04:21:34;-0.30;89.80
67769;DHT22;54569;52.018;5.584;2022-12-10T04:24:21;-0.20;89.80
67769;DHT22;54569;52.018;5.584;2022-12-10T04:27:12;-0.30;90.10
67769;DHT22;54569;52.018;5.584;2022-12-10T04:29:39;-0.30;90.10
67769;DHT22;54569;52.018;5.584;2022-12-10T04:32:05;-0.30;90.10
67769;DHT22;54569;52.018;5.584;2022-12-10T04:34:31;-0.30;90.10
67769;DHT22;54569;52.018;5.584;2022-12-10T04:36:58;-0.30;90.10
67769;DHT22;54569;52.018;5.584;2022-12-10T04:39:24;-0.30;90.10
67769;DHT22;54569;52.018;5.584;2022-12-10T04:41:50;-0.30;90.00
67769;DHT22;54569;52.018;5.584;2022-12-10T04:44:17;-0.30;90.10
67769;DHT22;54569;52.018;5.584;2022-12-10T04:46:43;-0.30;90.00
67769;DHT22;54569;52.018;5.584;2022-12-10T04:49:09;-0.30;89.90
67769;DHT22;54569;52.018;5.584;2022-12-10T04:51:35;-0.20;89.90
67769;DHT22;54569;52.018;5.584;2022-12-10T04:54:00;-0.30;90.00
67769;DHT22;54569;52.018;5.584;2022-12-10T04:56:27;-0.20;90.00
67769;DHT22;54569;52.018;5.584;2022-12-10T04:58:55;-0.20;90.10
67769;DHT22;54569;52.018;5.584;2022-12-10T05:01:21;-0.20;90.10
67769;DHT22;54569;52.018;5.584;2022-12-10T05:03:46;-0.20;90.10
67769;DHT22;54569;52.018;5.584;2022-12-10T05:06:14;-0.20;90.10
67769;DHT22;54569;52.018;5.584;2022-12-10T05:08:40;-0.20;90.30
67769;DHT22;54569;52.018;5.584;2022-12-10T05:11:09;-0.20;90.10
67769;DHT22;54569;52.018;5.584;2022-12-10T05:13:35;-0.20;90.10
67769;DHT22;54569;52.018;5.584;2022-12-10T05:16:02;-0.20;90.10
67769;DHT22;54569;52.018;5.584;2022-12-10T05:18:29;-0.20;90.10
67769;DHT22;54569;52.018;5.584;2022-12-10T05:20:54;-0.20;90.10
67769;DHT22;54569;52.018;5.584;2022-12-10T05:23:23;-0.20;90.40
67769;DHT22;54569;52.018;5.584;2022-12-10T05:28:29;-0.20;90.30
67769;DHT22;54569;52.018;5.584;2022-12-10T05:30:56;-0.20;90.20
67769;DHT22;54569;52.018;5.584;2022-12-10T05:33:22;-0.20;90.30
67769;DHT22;54569;52.018;5.584;2022-12-10T05:35:58;-0.20;90.20
67769;DHT22;54569;52.018;5.584;2022-12-10T05:38:26;-0.20;90.20
67769;DHT22;54569;52.018;5.584;2022-12-10T05:40:52;-0.20;90.20
67769;DHT22;54569;52.018;5.584;2022-12-10T05:43:18;-0.20;90.40
67769;DHT22;54569;52.018;5.584;2022-12-10T05:45:44;-0.20;90.60
67769;DHT22;54569;52.018;5.584;2022-12-10T05:48:12;-0.20;90.50
67769;DHT22;54569;52.018;5.584;2022-12-10T05:50:38;-0.20;90.50
67769;DHT22;54569;52.018;5.584;2022-12-10T05:53:04;-0.20;90.50
67769;DHT22;54569;52.018;5.584;2022-12-10T05:55:29;-0.20;90.60
67769;DHT22;54569;52.018;5.584;2022-12-10T05:57:57;-0.20;90.50
67769;DHT22;54569;52.018;5.584;2022-12-10T06:00:22;-0.20;90.50
67769;DHT22;54569;52.018;5.584;2022-12-10T06:02:52;-0.20;90.40
67769;DHT22;54569;52.018;5.584;2022-12-10T06:05:18;-0.20;90.60
67769;DHT22;54569;52.018;5.584;2022-12-10T06:07:44;-0.20;90.60
67769;DHT22;54569;52.018;5.584;2022-12-10T06:10:10;-0.20;90.60
67769;DHT22;54569;52.018;5.584;2022-12-10T06:12:36;-0.10;90.60
67769;DHT22;54569;52.018;5.584;2022-12-10T06:15:03;-0.10;90.50
67769;DHT22;54569;52.018;5.584;2022-12-10T06:17:29;-0.10;90.70
67769;DHT22;54569;52.018;5.584;2022-12-10T06:19:55;-0.10;90.50
67769;DHT22;54569;52.018;5.584;2022-12-10T06:22:21;-0.10;90.40
67769;DHT22;54569;52.018;5.584;2022-12-10T06:24:46;-0.10;90.60
67769;DHT22;54569;52.018;5.584;2022-12-10T06:27:12;-0.20;90.60
67769;DHT22;54569;52.018;5.584;2022-12-10T06:29:38;-0.20;90.60
67769;DHT22;54569;52.018;5.584;2022-12-10T06:32:05;-0.20;90.70
67769;DHT22;54569;52.018;5.584;2022-12-10T06:34:30;-0.20;90.80
67769;DHT22;54569;52.018;5.584;2022-12-10T06:36:56;-0.10;90.50
67769;DHT22;54569;52.018;5.584;2022-12-10T06:39:22;-0.10;90.50
67769;DHT22;54569;52.018;5.584;2022-12-10T06:41:48;-0.10;90.60
67769;DHT22;54569;52.018;5.584;2022-12-10T06:44:14;-0.10;90.70
67769;DHT22;54569;52.018;5.584;2022-12-10T06:46:40;-0.10;90.70
67769;DHT22;54569;52.018;5.584;2022-12-10T06:49:07;-0.10;90.60
67769;DHT22;54569;52.018;5.584;2022-12-10T06:51:33;-0.10;90.60
67769;DHT22;54569;52.018;5.584;2022-12-10T06:53:59;-0.10;90.90
67769;DHT22;54569;52.018;5.584;2022-12-10T06:56:24;-0.10;90.80
67769;DHT22;54569;52.018;5.584;2022-12-10T06:58:52;-0.10;90.90
67769;DHT22;54569;52.018;5.584;2022-12-10T07:01:22;-0.10;91.00
67769;DHT22;54569;52.018;5.584;2022-12-10T07:03:55;-0.20;91.00
67769;DHT22;54569;52.018;5.584;2022-12-10T07:06:22;-0.20;90.70
67769;DHT22;54569;52.018;5.584;2022-12-10T07:08:50;-0.20;90.90
67769;DHT22;54569;52.018;5.584;2022-12-10T07:11:18;-0.20;90.90
67769;DHT22;54569;52.018;5.584;2022-12-10T07:13:44;-0.20;91.00
67769;DHT22;54569;52.018;5.584;2022-12-10T07:16:22;-0.20;90.90
67769;DHT22;54569;52.018;5.584;2022-12-10T07:18:49;-0.20;91.10
67769;DHT22;54569;52.018;5.584;2022-12-10T07:21:17;-0.20;90.90
67769;DHT22;54569;52.018;5.584;2022-12-10T07:23:43;-0.20;90.90
67769;DHT22;54569;52.018;5.584;2022-12-10T07:26:09;-0.20;91.10
67769;DHT22;54569;52.018;5.584;2022-12-10T07:28:35;-0.20;90.90
67769;DHT22;54569;52.018;5.584;2022-12-10T07:31:05;-0.20;90.90
67769;DHT22;54569;52.018;5.584;2022-12-10T07:33:31;-0.20;90.90
67769;DHT22;54569;52.018;5.584;2022-12-10T07:35:57;-0.20;90.80
67769;DHT22;54569;52.018;5.584;2022-12-10T07:38:23;-0.20;90.70
67769;DHT22;54569;52.018;5.584;2022-12-10T07:40:50;-0.20;90.70
67769;DHT22;54569;52.018;5.584;2022-12-10T07:43:16;-0.20;90.70
67769;DHT22;54569;52.018;5.584;2022-12-10T07:45:42;-0.20;90.60
67769;DHT22;54569;52.018;5.584;2022-12-10T07:48:08;-0.10;90.70
67769;DHT22;54569;52.018;5.584;2022-12-10T07:50:34;-0.10;90.60
67769;DHT22;54569;52.018;5.584;2022-12-10T07:52:59;-0.10;90.60
67769;DHT22;54569;52.018;5.584;2022-12-10T07:55:25;-0.10;90.60
67769;DHT22;54569;52.018;5.584;2022-12-10T07:57:51;-0.10;90.70
67769;DHT22;54569;52.018;5.584;2022-12-10T08:00:17;-0.10;90.70
67769;DHT22;54569;52.018;5.584;2022-12-10T08:02:42;-0.10;90.70
67769;DHT22;54569;52.018;5.584;2022-12-10T08:05:08;-0.10;90.60
67769;DHT22;54569;52.018;5.584;2022-12-10T08:07:34;-0.10;90.60
67769;DHT22;54569;52.018;5.584;2022-12-10T08:10:00;-0.10;90.60
67769;DHT22;54569;52.018;5.584;2022-12-10T08:12:26;-0.10;90.60
67769;DHT22;54569;52.018;5.584;2022-12-10T08:14:52;-0.10;90.70
67769;DHT22;54569;52.018;5.584;2022-12-10T08:17:17;-0.10;90.70
67769;DHT22;54569;52.018;5.584;2022-12-10T08:19:43;-0.10;90.70
67769;DHT22;54569;52.018;5.584;2022-12-10T08:22:09;-0.10;90.70
67769;DHT22;54569;52.018;5.584;2022-12-10T08:24:34;-0.10;90.70
67769;DHT22;54569;52.018;5.584;2022-12-10T08:27:00;-0.10;90.70
67769;DHT22;54569;52.018;5.584;2022-12-10T08:29:26;0.00;90.60
67769;DHT22;54569;52.018;5.584;2022-12-10T08:31:54;0.00;90.70
67769;DHT22;54569;52.018;5.584;2022-12-10T08:34:20;0.00;90.70
67769;DHT22;54569;52.018;5.584;2022-12-10T08:36:46;0.00;90.70
67769;DHT22;54569;52.018;5.584;2022-12-10T08:39:12;0.00;90.70
67769;DHT22;54569;52.018;5.584;2022-12-10T08:41:43;0.00;90.80
67769;DHT22;54569;52.018;5.584;2022-12-10T08:44:10;0.00;90.60
67769;DHT22;54569;52.018;5.584;2022-12-10T08:46:35;0.00;91.00
67769;DHT22;54569;52.018;5.584;2022-12-10T08:49:01;0.00;90.90
67769;DHT22;54569;52.018;5.584;2022-12-10T08:51:27;0.00;91.00
67769;DHT22;54569;52.018;5.584;2022-12-10T08:53:54;0.00;91.10
67769;DHT22;54569;52.018;5.584;2022-12-10T08:56:21;-0.10;90.80
67769;DHT22;54569;52.018;5.584;2022-12-10T08:58:46;-0.10;90.80
67769;DHT22;54569;52.018;5.584;2022-12-10T09:01:15;-0.10;90.90
67769;DHT22;54569;52.018;5.584;2022-12-10T09:03:41;-0.10;91.00
67769;DHT22;54569;52.018;5.584;2022-12-10T09:06:12;-0.10;90.90
67769;DHT22;54569;52.018;5.584;2022-12-10T09:08:38;-0.10;91.10
67769;DHT22;54569;52.018;5.584;2022-12-10T09:11:10;0.00;91.00
67769;DHT22;54569;52.018;5.584;2022-12-10T09:13:36;-0.10;91.00
67769;DHT22;54569;52.018;5.584;2022-12-10T09:16:02;-0.10;90.90
67769;DHT22;54569;52.018;5.584;2022-12-10T09:18:28;-0.10;91.00
67769;DHT22;54569;52.018;5.584;2022-12-10T09:20:54;-0.10;91.00
67769;DHT22;54569;52.018;5.584;2022-12-10T09:23:19;-0.10;91.00
67769;DHT22;54569;52.018;5.584;2022-12-10T09:25:45;-0.10;91.00
67769;DHT22;54569;52.018;5.584;2022-12-10T09:28:11;-0.10;91.10
67769;DHT22;54569;52.018;5.584;2022-12-10T09:30:37;-0.10;90.90
67769;DHT22;54569;52.018;5.584;2022-12-10T09:33:02;-0.10;90.80
67769;DHT22;54569;52.018;5.584;2022-12-10T09:35:28;-0.10;90.90
67769;DHT22;54569;52.018;5.584;2022-12-10T09:37:54;-0.10;91.20
67769;DHT22;54569;52.018;5.584;2022-12-10T09:40:29;-0.10;91.10
67769;DHT22;54569;52.018;5.584;2022-12-10T09:43:13;-0.10;91.20
67769;DHT22;54569;52.018;5.584;2022-12-10T09:46:18;-0.10;91.20
67769;DHT22;54569;52.018;5.584;2022-12-10T09:51:36;-0.10;91.10
67769;DHT22;54569;52.018;5.584;2022-12-10T09:54:04;-0.10;91.10
67769;DHT22;54569;52.018;5.584;2022-12-10T09:56:36;-0.10;91.00
67769;DHT22;54569;52.018;5.584;2022-12-10T09:59:27;-0.10;91.10
67769;DHT22;54569;52.018;5.584;2022-12-10T10:02:20;-0.10;91.20
67769;DHT22;54569;52.018;5.584;2022-12-10T10:04:51;-0.10;91.30
67769;DHT22;54569;52.018;5.584;2022-12-10T10:07:26;-0.10;91.20
67769;DHT22;54569;52.018;5.584;2022-12-10T10:09:57;-0.10;91.00
67769;DHT22;54569;52.018;5.584;2022-12-10T10:12:25;-0.10;90.90
67769;DHT22;54569;52.018;5.584;2022-12-10T10:14:51;-0.10;91.00
67769;DHT22;54569;52.018;5.584;2022-12-10T10:17:27;-0.10;90.90
67769;DHT22;54569;52.018;5.584;2022-12-10T10:19:54;-0.10;90.90
67769;DHT22;54569;52.018;5.584;2022-12-10T10:22:20;-0.10;90.90
67769;DHT22;54569;52.018;5.584;2022-12-10T10:24:46;-0.10;90.90
67769;DHT22;54569;52.018;5.584;2022-12-10T10:27:18;0.00;90.80
67769;DHT22;54569;52.018;5.584;2022-12-10T10:29:46;-0.10;90.90
67769;DHT22;54569;52.018;5.584;2022-12-10T10:32:23;-0.10;91.00
67769;DHT22;54569;52.018;5.584;2022-12-10T10:34:55;0.00;91.00
67769;DHT22;54569;52.018;5.584;2022-12-10T10:37:23;0.00;90.90
67769;DHT22;54569;52.018;5.584;2022-12-10T10:39:51;0.00;91.00
67769;DHT22;54569;52.018;5.584;2022-12-10T10:42:40;0.00;91.00
67769;DHT22;54569;52.018;5.584;2022-12-10T10:48:14;0.10;91.00
67769;DHT22;54569;52.018;5.584;2022-12-10T10:50:43;0.10;90.90
67769;DHT22;54569;52.018;5.584;2022-12-10T10:53:30;0.10;90.90
67769;DHT22;54569;52.018;5.584;2022-12-10T10:58:32;0.00;90.70
67769;DHT22;54569;52.018;5.584;2022-12-10T11:01:06;0.00;90.70
67769;DHT22;54569;52.018;5.584;2022-12-10T11:03:34;0.00;90.70
67769;DHT22;54569;52.018;5.584;2022-12-10T11:06:03;0.00;90.70
67769;DHT22;54569;52.018;5.584;2022-12-10T11:08:31;0.00;90.80
67769;DHT22;54569;52.018;5.584;2022-12-10T11:11:12;0.00;90.70
67769;DHT22;54569;52.018;5.584;2022-12-10T11:13:42;0.10;90.80
67769;DHT22;54569;52.018;5.584;2022-12-10T11:19:21;0.00;90.70
67769;DHT22;54569;52.018;5.584;2022-12-10T11:21:48;0.00;90.80
67769;DHT22;54569;52.018;5.584;2022-12-10T11:24:16;0.00;90.90
67769;DHT22;54569;52.018;5.584;2022-12-10T11:27:01;0.00;91.00
67769;DHT22;54569;52.018;5.584;2022-12-10T11:29:53;0.10;90.90
67769;DHT22;54569;52.018;5.584;2022-12-10T11:40:56;0.10;91.10
67769;DHT22;54569;52.018;5.584;2022-12-10T11:43:44;0.10;90.80
67769;DHT22;54569;52.018;5.584;2022-12-10T11:52:50;0.30;90.70
67769;DHT22;54569;52.018;5.584;2022-12-10T11:55:21;0.30;90.70
67769;DHT22;54569;52.018;5.584;2022-12-10T11:58:17;0.30;90.60
67769;DHT22;54569;52.018;5.584;2022-12-10T12:01:09;0.40;90.60
67769;DHT22;54569;52.018;5.584;2022-12-10T12:06:15;0.30;90.60
67769;DHT22;54569;52.018;5.584;2022-12-10T12:09:10;0.20;90.60
67769;DHT22;54569;52.018;5.584;2022-12-10T12:14:24;0.10;91.20
67769;DHT22;54569;52.018;5.584;2022-12-10T12:17:02;0.00;91.00
67769;DHT22;54569;52.018;5.584;2022-12-10T12:19:38;0.00;91.20
67769;DHT22;54569;52.018;5.584;2022-12-10T12:22:25;0.00;91.10
67769;DHT22;54569;52.018;5.584;2022-12-10T12:24:57;0.10;91.00
67769;DHT22;54569;52.018;5.584;2022-12-10T12:27:35;0.10;91.00
67769;DHT22;54569;52.018;5.584;2022-12-10T12:35:44;0.20;91.00
67769;DHT22;54569;52.018;5.584;2022-12-10T12:40:52;0.20;90.80
67769;DHT22;54569;52.018;5.584;2022-12-10T12:43:24;0.20;90.80
67769;DHT22;54569;52.018;5.584;2022-12-10T12:45:54;0.10;90.90
67769;DHT22;54569;52.018;5.584;2022-12-10T12:49:16;0.10;90.80
67769;DHT22;54569;52.018;5.584;2022-12-10T12:51:39;0.10;91.10
67769;DHT22;54569;52.018;5.584;2022-12-10T12:54:10;0.10;91.30
67769;DHT22;54569;52.018;5.584;2022-12-10T13:01:49;0.10;92.10
67769;DHT22;54569;52.018;5.584;2022-12-10T13:04:17;0.10;91.40
67769;DHT22;54569;52.018;5.584;2022-12-10T13:07:11;0.10;91.20
67769;DHT22;54569;52.018;5.584;2022-12-10T13:10:18;0.20;91.20
67769;DHT22;54569;52.018;5.584;2022-12-10T13:13:16;0.20;91.20
67769;DHT22;54569;52.018;5.584;2022-12-10T13:15:38;0.20;91.20
67769;DHT22;54569;52.018;5.584;2022-12-10T13:18:20;0.20;91.00
67769;DHT22;54569;52.018;5.584;2022-12-10T13:23:51;0.30;90.90
67769;DHT22;54569;52.018;5.584;2022-12-10T13:26:30;0.30;91.00
67769;DHT22;54569;52.018;5.584;2022-12-10T13:29:43;0.40;91.00
67769;DHT22;54569;52.018;5.584;2022-12-10T13:32:02;0.40;91.00
67769;DHT22;54569;52.018;5.584;2022-12-10T13:34:36;0.40;90.80
67769;DHT22;54569;52.018;5.584;2022-12-10T13:37:06;0.30;90.90
67769;DHT22;54569;52.018;5.584;2022-12-10T13:40:01;0.30;91.00
67769;DHT22;54569;52.018;5.584;2022-12-10T13:42:35;0.40;91.20
67769;DHT22;54569;52.018;5.584;2022-12-10T13:47:53;0.40;91.10
67769;DHT22;54569;52.018;5.584;2022-12-10T13:55:53;0.50;91.00
67769;DHT22;54569;52.018;5.584;2022-12-10T14:01:29;0.50;91.10
67769;DHT22;54569;52.018;5.584;2022-12-10T14:06:38;0.50;91.00
67769;DHT22;54569;52.018;5.584;2022-12-10T14:09:24;0.50;91.10
67769;DHT22;54569;52.018;5.584;2022-12-10T14:12:25;0.50;91.20
67769;DHT22;54569;52.018;5.584;2022-12-10T14:14:46;0.50;91.20
67769;DHT22;54569;52.018;5.584;2022-12-10T14:17:18;0.50;91.20
67769;DHT22;54569;52.018;5.584;2022-12-10T14:19:48;0.50;91.10
67769;DHT22;54569;52.018;5.584;2022-12-10T14:22:30;0.50;91.20
67769;DHT22;54569;52.018;5.584;2022-12-10T14:24:59;0.50;91.20
67769;DHT22;54569;52.018;5.584;2022-12-10T14:27:27;0.50;91.30
67769;DHT22;54569;52.018;5.584;2022-12-10T14:29:59;0.60;91.10
67769;DHT22;54569;52.018;5.584;2022-12-10T14:32:34;0.50;91.50
67769;DHT22;54569;52.018;5.584;2022-12-10T14:35:02;0.50;91.30
67769;DHT22;54569;52.018;5.584;2022-12-10T14:37:31;0.50;91.50
67769;DHT22;54569;52.018;5.584;2022-12-10T14:39:59;0.60;91.20
67769;DHT22;54569;52.018;5.584;2022-12-10T14:42:26;0.60;91.20
67769;DHT22;54569;52.018;5.584;2022-12-10T14:44:57;0.60;91.10
67769;DHT22;54569;52.018;5.584;2022-12-10T14:47:23;0.60;91.00
67769;DHT22;54569;52.018;5.584;2022-12-10T14:49:53;0.60;91.00
67769;DHT22;54569;52.018;5.584;2022-12-10T14:52:32;0.60;91.00
67769;DHT22;54569;52.018;5.584;2022-12-10T14:55:01;0.70;91.10
67769;DHT22;54569;52.018;5.584;2022-12-10T14:57:32;0.70;91.20
67769;DHT22;54569;52.018;5.584;2022-12-10T15:00:06;0.70;91.10
67769;DHT22;54569;52.018;5.584;2022-12-10T15:02:41;0.70;91.00
67769;DHT22;54569;52.018;5.584;2022-12-10T15:05:11;0.70;91.10
67769;DHT22;54569;52.018;5.584;2022-12-10T15:07:37;0.70;91.90
67769;DHT22;54569;52.018;5.584;2022-12-10T15:10:10;0.70;91.50
67769;DHT22;54569;52.018;5.584;2022-12-10T15:12:43;0.70;91.30
67769;DHT22;54569;52.018;5.584;2022-12-10T15:15:16;0.70;91.30
67769;DHT22;54569;52.018;5.584;2022-12-10T15:20:29;0.70;91.20
67769;DHT22;54569;52.018;5.584;2022-12-10T15:23:07;0.70;91.20
67769;DHT22;54569;52.018;5.584;2022-12-10T15:25:44;0.60;91.10
67769;DHT22;54569;52.018;5.584;2022-12-10T15:28:22;0.70;91.20
67769;DHT22;54569;52.018;5.584;2022-12-10T15:30:49;0.60;91.30
67769;DHT22;54569;52.018;5.584;2022-12-10T15:33:37;0.60;91.30
67769;DHT22;54569;52.018;5.584;2022-12-10T15:36:04;0.60;91.30
67769;DHT22;54569;52.018;5.584;2022-12-10T15:38:31;0.70;91.20
67769;DHT22;54569;52.018;5.584;2022-12-10T15:41:30;0.70;91.20
67769;DHT22;54569;52.018;5.584;2022-12-10T15:44:04;0.70;91.30
67769;DHT22;54569;52.018;5.584;2022-12-10T15:46:30;0.60;91.40
67769;DHT22;54569;52.018;5.584;2022-12-10T15:48:56;0.60;91.50
67769;DHT22;54569;52.018;5.584;2022-12-10T15:51:21;0.60;91.50
67769;DHT22;54569;52.018;5.584;2022-12-10T15:53:47;0.70;91.40
67769;DHT22;54569;52.018;5.584;2022-12-10T15:56:15;0.70;91.40
67769;DHT22;54569;52.018;5.584;2022-12-10T15:58:41;0.70;91.60
67769;DHT22;54569;52.018;5.584;2022-12-10T16:01:10;0.70;91.30
67769;DHT22;54569;52.018;5.584;2022-12-10T16:03:37;0.70;91.30
67769;DHT22;54569;52.018;5.584;2022-12-10T16:06:06;0.70;91.30
67769;DHT22;54569;52.018;5.584;2022-12-10T16:08:32;0.70;91.30
67769;DHT22;54569;52.018;5.584;2022-12-10T16:11:03;0.70;91.30
67769;DHT22;54569;52.018;5.584;2022-12-10T16:13:36;0.70;91.30
67769;DHT22;54569;52.018;5.584;2022-12-10T16:16:08;0.80;91.30
67769;DHT22;54569;52.018;5.584;2022-12-10T16:18:35;0.80;91.30
67769;DHT22;54569;52.018;5.584;2022-12-10T16:21:03;0.80;91.60
67769;DHT22;54569;52.018;5.584;2022-12-10T16:23:30;0.70;91.40
67769;DHT22;54569;52.018;5.584;2022-12-10T16:25:56;0.80;91.30
67769;DHT22;54569;52.018;5.584;2022-12-10T16:28:23;0.80;91.30
67769;DHT22;54569;52.018;5.584;2022-12-10T16:30:53;0.80;91.40
67769;DHT22;54569;52.018;5.584;2022-12-10T16:33:21;0.80;91.40
67769;DHT22;54569;52.018;5.584;2022-12-10T16:35:47;0.90;91.40
67769;DHT22;54569;52.018;5.584;2022-12-10T16:38:13;0.90;91.40
67769;DHT22;54569;52.018;5.584;2022-12-10T16:40:41;0.90;91.40
67769;DHT22;54569;52.018;5.584;2022-12-10T16:43:18;0.90;91.40
67769;DHT22;54569;52.018;5.584;2022-12-10T16:45:45;0.90;91.40
67769;DHT22;54569;52.018;5.584;2022-12-10T16:48:11;0.90;91.40
67769;DHT22;54569;52.018;5.584;2022-12-10T16:50:37;0.90;91.30
67769;DHT22;54569;52.018;5.584;2022-12-10T16:53:14;0.90;91.30
67769;DHT22;54569;52.018;5.584;2022-12-10T16:55:40;0.90;91.30
67769;DHT22;54569;52.018;5.584;2022-12-10T16:58:12;1.00;91.40
67769;DHT22;54569;52.018;5.584;2022-12-10T17:00:40;0.90;91.50
67769;DHT22;54569;52.018;5.584;2022-12-10T17:03:10;0.90;91.50
67769;DHT22;54569;52.018;5.584;2022-12-10T17:05:42;1.00;91.50
67769;DHT22;54569;52.018;5.584;2022-12-10T17:08:08;1.00;91.50
67769;DHT22;54569;52.018;5.584;2022-12-10T17:10:35;1.00;91.50
67769;DHT22;54569;52.018;5.584;2022-12-10T17:13:22;1.00;91.40
67769;DHT22;54569;52.018;5.584;2022-12-10T17:15:48;1.00;91.50
67769;DHT22;54569;52.018;5.584;2022-12-10T17:18:18;1.00;91.50
67769;DHT22;54569;52.018;5.584;2022-12-10T17:20:44;1.00;91.60
67769;DHT22;54569;52.018;5.584;2022-12-10T17:23:12;1.00;91.60
67769;DHT22;54569;52.018;5.584;2022-12-10T17:25:38;1.00;91.60
67769;DHT22;54569;52.018;5.584;2022-12-10T17:28:05;1.00;91.60
67769;DHT22;54569;52.018;5.584;2022-12-10T17:30:31;1.00;91.60
67769;DHT22;54569;52.018;5.584;2022-12-10T17:32:57;1.00;91.60
67769;DHT22;54569;52.018;5.584;2022-12-10T17:35:23;1.00;91.60